Etusivu
METAR-TAF:

METAR-TAF

Lentoasemat :

Amman, Jordania

Leveyspiiri: 31-59N, Pituuspiiri: 035-59E, korkeus merenpinnasta: 767 m

Tämänhetkinen sää

Tämä raportti tehtiin 36 minuuttia sitten, kello 20.00 UTC
Tuuli 6 kn pohjoisen/luoteesta
Lämpötila 26°C
Kosteus 61%
Ilmanpaine 1010 hPa
Näkyvyys: 6000 m

METAR: OJAM 232000Z 34006KT 6000 NSC 26/18 Q1010 NOSIG

Aika: 23:36 (20:36 UTC)

Sääennuste

Tämä raportti tehtiin 3 tuntia ja 46 minuuttia sitten, kello 16.50 UTC
Ennuste voimassa 23. päivästä klo 18 UTC - 24. päivään klo 24 UTC
Tuuli 12 kn lännestä/luoteesta
Näkyvyys: 6000 m
Ajoittain
24. päivästä klo 01 UTC - 24. päivään klo 05 UTC
Tuuli 6 kn lännestä/luoteesta
Näkyvyys: 3000 m
savua

TAF: OJAM 231650Z 2318/2424 30012KT 6000 NSC TEMPO 2401/2405 29006KT 3000 FU

Säähavainnot ja -ennusteet yli 4000 lentoasemalta (METAR- ja TAF-raportit).

Käytössä olevat sääasemat on merkitty karttaan keltaisilla ja punaisilla pisteillä.

Aseta hiiri pisteen päälle nähdäksesi sääaseman nimen.

Klikkaa sitten nähdäksesi säähavainnot ja -ennusteet.

Kartan vaihtaminen: klikkaa mustalla rastilla varustettuja vihreitä pisteitä, niin voit zoomata sisään; viivalla varustettua vihreää pistettä, niin voit zoomata ulos tai vihreitä nuolia, niin pääset viereisille kartoille.


METAR-TAF: